createdAt,value
2023-07-06T00:02:26.224Z,101603.00
2023-07-06T00:04:53.439Z,101599.50
2023-07-06T00:07:22.563Z,101598.69
2023-07-06T00:09:50.686Z,101602.22
2023-07-06T00:12:20.213Z,101601.84
2023-07-06T00:14:46.783Z,101597.22
2023-07-06T00:17:15.538Z,101599.59
2023-07-06T00:19:43.116Z,101601.25
2023-07-06T00:22:12.116Z,101593.91
2023-07-06T00:24:39.936Z,101599.44
2023-07-06T00:27:06.730Z,101595.66
2023-07-06T00:29:36.936Z,101592.59
2023-07-06T00:32:28.067Z,101600.50
2023-07-06T00:35:00.131Z,101593.59
2023-07-06T00:37:27.787Z,101593.13
2023-07-06T00:39:55.488Z,101594.72
2023-07-06T00:42:24.000Z,101589.63
2023-07-06T00:44:59.029Z,101595.50
2023-07-06T00:47:38.262Z,101590.06
2023-07-06T00:50:09.934Z,101585.78
2023-07-06T00:52:41.062Z,101590.41
2023-07-06T00:55:09.747Z,101590.78
2023-07-06T00:57:39.953Z,101588.41
2023-07-06T01:00:08.830Z,101591.13
2023-07-06T01:02:40.166Z,101589.44
2023-07-06T01:05:09.570Z,101603.38
2023-07-06T01:07:39.123Z,101598.28
2023-07-06T01:10:06.813Z,101606.00
2023-07-06T01:12:34.321Z,101591.97
2023-07-06T01:15:01.517Z,101594.69
2023-07-06T01:17:40.471Z,101604.78
2023-07-06T01:20:23.465Z,101599.34
2023-07-06T01:23:08.544Z,101603.19
2023-07-06T01:25:47.187Z,101596.97
2023-07-06T01:28:38.997Z,101596.16
2023-07-06T01:31:29.668Z,101602.41
2023-07-06T01:34:25.810Z,101599.78
2023-07-06T01:37:04.237Z,101604.53
2023-07-06T01:39:30.743Z,101604.16
2023-07-06T01:42:15.888Z,101594.19
2023-07-06T01:44:48.297Z,101599.28
2023-07-06T01:47:17.338Z,101594.28
2023-07-06T01:49:44.522Z,101596.31
2023-07-06T01:52:37.760Z,101595.97
2023-07-06T01:55:22.219Z,101598.69
2023-07-06T01:58:02.342Z,101594.81
2023-07-06T02:00:32.015Z,101597.19
2023-07-06T02:03:01.008Z,101600.69
2023-07-06T02:05:29.007Z,101600.34
2023-07-06T02:07:56.351Z,101605.00
2023-07-06T02:10:23.605Z,101599.56
2023-07-06T02:12:50.660Z,101595.25
2023-07-06T02:15:20.906Z,101601.16
2023-07-06T02:17:48.823Z,101598.44
2023-07-06T02:20:17.711Z,101594.13
2023-07-06T02:22:45.486Z,101589.47
2023-07-06T02:25:13.008Z,101588.78
2023-07-06T02:27:39.819Z,101590.38
2023-07-06T02:30:07.146Z,101597.72
2023-07-06T02:32:35.211Z,101592.63
2023-07-06T02:35:03.831Z,101597.72
2023-07-06T02:37:31.515Z,101596.59
2023-07-06T02:40:00.037Z,101595.44
2023-07-06T02:42:27.363Z,101594.66
2023-07-06T02:44:55.143Z,101593.88
2023-07-06T02:47:23.320Z,101599.31
2023-07-06T02:49:49.996Z,101606.69
2023-07-06T02:52:16.848Z,101597.72
2023-07-06T02:54:43.737Z,101600.44
2023-07-06T02:57:10.265Z,101603.97
2023-07-06T02:59:36.877Z,101607.81
2023-07-06T03:02:04.829Z,101608.94
2023-07-06T03:04:33.162Z,101608.16
2023-07-06T03:07:00.167Z,101612.38
2023-07-06T03:09:30.784Z,101605.69
2023-07-06T03:11:57.746Z,101608.41
2023-07-06T03:14:25.925Z,101606.03
2023-07-06T03:16:55.924Z,101606.03
2023-07-06T03:19:22.805Z,101614.53
2023-07-06T03:21:49.574Z,101606.72
2023-07-06T03:24:16.504Z,101617.59
2023-07-06T03:26:44.965Z,101610.59
2023-07-06T03:29:14.863Z,101611.38
2023-07-06T03:31:42.331Z,101611.38
2023-07-06T03:34:08.990Z,101612.97
2023-07-06T03:36:36.590Z,101610.69
2023-07-06T03:39:03.647Z,101610.69
2023-07-06T03:41:30.321Z,101630.13
2023-07-06T03:44:00.534Z,101624.69
2023-07-06T03:46:35.869Z,101623.59
2023-07-06T03:49:04.741Z,101622.41
2023-07-06T03:51:32.914Z,101607.72
2023-07-06T03:54:00.370Z,101615.53
2023-07-06T03:56:29.760Z,101617.91
2023-07-06T03:58:57.896Z,101621.38
2023-07-06T04:01:28.780Z,101619.47
2023-07-06T04:03:57.725Z,101631.13
2023-07-06T04:06:30.012Z,101626.47
2023-07-06T04:09:00.750Z,101639.38
2023-07-06T04:11:27.530Z,101629.28
2023-07-06T04:14:00.370Z,101631.66
2023-07-06T04:16:28.451Z,101628.94
2023-07-06T04:18:55.221Z,101624.28
2023-07-06T04:21:23.440Z,101630.50
2023-07-06T04:23:50.548Z,101630.50
2023-07-06T04:26:19.235Z,101631.41
2023-07-06T04:28:46.303Z,101629.13
2023-07-06T04:31:16.028Z,101637.38
2023-07-06T04:33:44.857Z,101635.91
2023-07-06T04:36:11.591Z,101638.25
2023-07-06T04:38:38.669Z,101644.59
2023-07-06T04:41:06.211Z,101645.03
2023-07-06T04:43:32.896Z,101643.97
2023-07-06T04:45:59.741Z,101651.41
2023-07-06T04:48:27.689Z,101654.59
2023-07-06T04:50:55.597Z,101650.38
2023-07-06T04:53:23.335Z,101657.84
2023-07-06T04:55:52.082Z,101657.50
2023-07-06T04:58:19.688Z,101653.31
2023-07-06T05:00:47.269Z,101656.91
2023-07-06T05:03:14.671Z,101665.16
2023-07-06T05:05:47.099Z,101661.03
2023-07-06T05:08:17.066Z,101664.28
2023-07-06T05:10:52.029Z,101670.25
2023-07-06T05:13:21.723Z,101672.28
2023-07-06T05:15:50.088Z,101663.47
2023-07-06T05:18:21.694Z,101660.13
2023-07-06T05:20:51.280Z,101660.75
2023-07-06T05:23:19.646Z,101662.59
2023-07-06T05:25:46.443Z,101664.03
2023-07-06T05:28:12.988Z,101662.78
2023-07-06T05:30:40.794Z,101662.28
2023-07-06T05:33:07.632Z,101662.69
2023-07-06T05:35:34.191Z,101655.44
2023-07-06T05:38:01.464Z,101660.75
2023-07-06T05:40:28.565Z,101671.28
2023-07-06T05:42:56.122Z,101664.56
2023-07-06T05:45:22.784Z,101668.94
2023-07-06T05:47:49.549Z,101658.38
2023-07-06T05:50:16.144Z,101662.09
2023-07-06T05:52:42.869Z,101659.69
2023-07-06T05:55:10.490Z,101673.28
2023-07-06T05:57:37.301Z,101680.94
2023-07-06T06:00:11.057Z,101673.22
2023-07-06T06:02:39.152Z,101682.63
2023-07-06T06:05:06.896Z,101678.31
2023-07-06T06:07:34.636Z,101683.28
2023-07-06T06:10:04.307Z,101678.53
2023-07-06T06:12:32.864Z,101693.28
2023-07-06T06:14:59.990Z,101687.31
2023-07-06T06:17:29.554Z,101695.97
2023-07-06T06:19:56.340Z,101696.75
2023-07-06T06:22:23.726Z,101704.97
2023-07-06T06:24:50.443Z,101702.22
2023-07-06T06:27:18.873Z,101709.69
2023-07-06T06:29:45.497Z,101712.81
2023-07-06T06:32:13.173Z,101716.56
2023-07-06T06:34:41.194Z,101715.22
2023-07-06T06:37:09.362Z,101727.25
2023-07-06T06:39:36.304Z,101731.69
2023-07-06T06:42:04.060Z,101725.84
2023-07-06T06:44:31.958Z,101731.50
2023-07-06T06:47:03.448Z,101737.69
2023-07-06T06:49:34.435Z,101726.94
2023-07-06T06:52:05.521Z,101730.38
2023-07-06T06:54:33.187Z,101736.38
2023-07-06T06:56:59.986Z,101736.63
2023-07-06T06:59:26.963Z,101744.84
2023-07-06T07:01:55.813Z,101747.66
2023-07-06T07:04:23.472Z,101747.34
2023-07-06T07:06:50.110Z,101751.75
2023-07-06T07:09:19.247Z,101750.44
2023-07-06T07:11:46.315Z,101749.34
2023-07-06T07:14:15.410Z,101753.38
2023-07-06T07:16:42.261Z,101759.44
2023-07-06T07:19:09.848Z,101754.63
2023-07-06T07:21:37.287Z,101754.47
2023-07-06T07:24:04.319Z,101753.28
2023-07-06T07:26:31.125Z,101750.63
2023-07-06T07:28:58.295Z,101755.03
2023-07-06T07:31:26.788Z,101757.69
2023-07-06T07:33:54.147Z,101760.28
2023-07-06T07:36:21.697Z,101773.06
2023-07-06T07:38:50.254Z,101763.78
2023-07-06T07:41:20.787Z,101767.09
2023-07-06T07:43:50.346Z,101770.09
2023-07-06T07:46:19.788Z,101765.91
2023-07-06T07:48:48.401Z,101756.88
2023-07-06T07:51:18.470Z,101758.06
2023-07-06T07:53:45.855Z,101760.97
2023-07-06T07:56:16.779Z,101765.75
2023-07-06T07:58:46.622Z,101757.06
2023-07-06T08:01:14.645Z,101760.06
2023-07-06T08:03:41.621Z,101765.38
2023-07-06T08:06:10.384Z,101763.13
2023-07-06T08:08:39.332Z,101759.72
2023-07-06T08:11:08.578Z,101751.88
2023-07-06T08:13:36.217Z,101764.44
2023-07-06T08:16:04.993Z,101761.97
2023-07-06T08:18:32.240Z,101769.88
2023-07-06T08:21:36.880Z,101771.84
2023-07-06T08:23:49.397Z,101774.41
2023-07-06T08:26:16.620Z,101780.00
2023-07-06T08:28:43.544Z,101779.13
2023-07-06T08:31:20.991Z,101786.66
2023-07-06T08:33:49.190Z,101786.66
2023-07-06T08:36:17.408Z,101783.78
2023-07-06T08:38:44.989Z,101780.19
2023-07-06T08:41:32.612Z,101789.91
2023-07-06T08:44:01.079Z,101791.50
2023-07-06T08:46:33.437Z,101788.91
2023-07-06T08:49:01.720Z,101797.38
2023-07-06T08:51:35.836Z,101791.56
2023-07-06T08:54:11.366Z,101788.66
2023-07-06T08:56:37.968Z,101800.22
2023-07-06T08:59:14.304Z,101800.97
2023-07-06T09:01:43.258Z,101796.22
2023-07-06T09:04:20.240Z,101801.91
2023-07-06T09:06:55.024Z,101802.28
2023-07-06T09:09:22.170Z,101812.75
2023-07-06T09:11:51.881Z,101804.63
2023-07-06T09:14:21.219Z,101811.25
2023-07-06T09:16:58.584Z,101810.09
2023-07-06T09:19:26.683Z,101809.47
2023-07-06T09:21:59.522Z,101814.34
2023-07-06T09:24:28.785Z,101816.28
2023-07-06T09:27:00.208Z,101813.84
2023-07-06T09:29:33.655Z,101812.81
2023-07-06T09:32:14.163Z,101813.97
2023-07-06T09:34:48.021Z,101804.63
2023-07-06T09:37:16.184Z,101807.22
2023-07-06T09:39:42.988Z,101809.03
2023-07-06T09:42:16.613Z,101808.88
2023-07-06T09:44:43.234Z,101811.13
2023-07-06T09:47:14.415Z,101813.09
2023-07-06T09:49:56.448Z,101811.22
2023-07-06T09:52:23.989Z,101817.53
2023-07-06T09:55:15.163Z,101823.78
2023-07-06T09:57:41.763Z,101823.66
2023-07-06T10:00:18.502Z,101816.75
2023-07-06T10:03:01.189Z,101818.31
2023-07-06T10:05:53.671Z,101822.81
2023-07-06T10:08:25.911Z,101822.66
2023-07-06T10:11:17.805Z,101827.56
2023-07-06T10:14:06.497Z,101830.06
2023-07-06T10:16:48.916Z,101823.56
2023-07-06T10:19:21.611Z,101821.75
2023-07-06T10:22:22.410Z,101816.25
2023-07-06T10:24:54.846Z,101827.13
2023-07-06T10:27:27.673Z,101827.84
2023-07-06T10:29:59.736Z,101826.47
2023-07-06T10:32:34.185Z,101827.47
2023-07-06T10:35:32.429Z,101826.38
2023-07-06T10:38:02.189Z,101824.81
2023-07-06T10:40:30.346Z,101828.81
2023-07-06T10:43:14.278Z,101829.66
2023-07-06T10:45:47.261Z,101834.38
2023-07-06T10:48:22.995Z,101835.22
2023-07-06T10:51:05.411Z,101838.03
2023-07-06T10:53:43.721Z,101847.50
2023-07-06T10:56:13.290Z,101858.53
2023-07-06T10:58:58.405Z,101855.75
2023-07-06T11:01:33.580Z,101858.47
2023-07-06T11:04:02.503Z,101862.00
2023-07-06T11:06:55.439Z,101859.25
2023-07-06T11:09:22.541Z,101865.94
2023-07-06T11:11:49.186Z,101864.78
2023-07-06T11:14:32.212Z,101865.56
2023-07-06T11:17:03.967Z,101873.03
2023-07-06T11:19:35.708Z,101871.44
2023-07-06T11:22:07.021Z,101866.34
2023-07-06T11:24:46.006Z,101876.97
2023-07-06T11:27:26.497Z,101876.97
2023-07-06T11:29:55.571Z,101876.19
2023-07-06T11:32:33.767Z,101879.31
2023-07-06T11:35:25.306Z,101876.97
2023-07-06T11:38:20.695Z,101874.19
2023-07-06T11:41:18.145Z,101872.59
2023-07-06T11:44:03.301Z,101875.69
2023-07-06T11:49:49.238Z,101874.00
2023-07-06T11:52:26.048Z,101882.63
2023-07-06T11:55:19.917Z,101874.28
2023-07-06T11:58:30.081Z,101878.72
2023-07-06T12:01:11.632Z,101886.41
2023-07-06T12:03:39.025Z,101876.72
2023-07-06T12:06:05.712Z,101880.38
2023-07-06T12:08:38.966Z,101876.28
2023-07-06T12:11:10.851Z,101876.94
2023-07-06T12:13:42.446Z,101872.25
2023-07-06T12:16:20.475Z,101876.94
2023-07-06T12:18:56.958Z,101867.47
2023-07-06T12:21:54.098Z,101862.84
2023-07-06T12:24:24.319Z,101869.81
2023-07-06T12:26:57.206Z,101862.09
2023-07-06T12:29:28.473Z,101864.50
2023-07-06T12:32:02.136Z,101865.66
2023-07-06T12:34:34.076Z,101868.56
2023-07-06T12:37:03.871Z,101879.22
2023-07-06T12:39:39.689Z,101879.97
2023-07-06T12:42:08.120Z,101873.53
2023-07-06T12:44:35.161Z,101875.66
2023-07-06T12:47:19.351Z,101872.31
2023-07-06T12:49:48.453Z,101872.66
2023-07-06T12:52:15.054Z,101861.16
2023-07-06T12:54:50.312Z,101862.50
2023-07-06T12:57:26.588Z,101870.59
2023-07-06T12:59:58.086Z,101860.50
2023-07-06T13:02:31.390Z,101861.78
2023-07-06T13:04:58.807Z,101861.88
2023-07-06T13:07:29.510Z,101866.09
2023-07-06T13:09:56.476Z,101861.84
2023-07-06T13:12:25.995Z,101869.50
2023-07-06T13:14:53.556Z,101874.25
2023-07-06T13:17:27.141Z,101879.38
2023-07-06T13:19:55.590Z,101878.81
2023-07-06T13:22:22.729Z,101861.63
2023-07-06T13:24:49.451Z,101863.19
2023-07-06T13:27:18.239Z,101863.25
2023-07-06T13:29:46.485Z,101863.56
2023-07-06T13:32:19.154Z,101862.94
2023-07-06T13:34:48.115Z,101873.50
2023-07-06T13:37:25.995Z,101873.72
2023-07-06T13:39:53.033Z,101867.31
2023-07-06T13:42:22.823Z,101864.47
2023-07-06T13:44:50.597Z,101872.94
2023-07-06T13:47:20.122Z,101861.09
2023-07-06T13:49:51.859Z,101863.91
2023-07-06T13:52:21.182Z,101855.91
2023-07-06T13:54:47.903Z,101870.38
2023-07-06T13:57:14.531Z,101867.09
2023-07-06T13:59:41.325Z,101869.56
2023-07-06T14:02:14.768Z,101856.94
2023-07-06T14:04:43.674Z,101863.13
2023-07-06T14:07:11.338Z,101857.25
2023-07-06T14:09:38.158Z,101856.66
2023-07-06T14:12:06.497Z,101856.47
2023-07-06T14:14:33.274Z,101866.69
2023-07-06T14:16:59.963Z,101854.97
2023-07-06T14:19:26.568Z,101847.00
2023-07-06T14:21:53.452Z,101861.59
2023-07-06T14:24:22.922Z,101854.28
2023-07-06T14:26:49.794Z,101853.66
2023-07-06T14:29:17.424Z,101856.50
2023-07-06T14:31:48.878Z,101862.81
2023-07-06T14:34:17.129Z,101858.47
2023-07-06T14:36:43.622Z,101857.81
2023-07-06T14:39:10.515Z,101864.19
2023-07-06T14:41:37.241Z,101859.09
2023-07-06T14:44:04.116Z,101863.78
2023-07-06T14:46:31.309Z,101860.31
2023-07-06T14:48:57.872Z,101853.53
2023-07-06T14:51:24.436Z,101861.22
2023-07-06T14:53:52.723Z,101849.78
2023-07-06T14:56:22.618Z,101855.91
2023-07-06T14:58:50.248Z,101852.34
2023-07-06T15:01:16.898Z,101854.19
2023-07-06T15:03:43.702Z,101854.50
2023-07-06T15:06:12.065Z,101861.50
2023-07-06T15:08:38.860Z,101854.84
2023-07-06T15:11:05.444Z,101862.06
2023-07-06T15:13:32.222Z,101853.13
2023-07-06T15:15:59.288Z,101849.94
2023-07-06T15:18:26.613Z,101858.97
2023-07-06T15:21:10.517Z,101845.72
2023-07-06T15:23:38.769Z,101841.78
2023-07-06T15:26:05.825Z,101848.97
2023-07-06T15:28:32.663Z,101841.34
2023-07-06T15:30:59.406Z,101850.84
2023-07-06T15:33:26.083Z,101840.22
2023-07-06T15:35:52.703Z,101840.91
2023-07-06T15:38:19.245Z,101845.78
2023-07-06T15:40:47.966Z,101842.72
2023-07-06T15:43:16.179Z,101842.38
2023-07-06T15:45:44.700Z,101830.81
2023-07-06T15:48:11.439Z,101832.66
2023-07-06T15:50:39.534Z,101826.91
2023-07-06T15:53:08.422Z,101829.22
2023-07-06T15:55:36.354Z,101827.88
2023-07-06T15:58:03.518Z,101831.06
2023-07-06T16:00:30.120Z,101825.72
2023-07-06T16:02:57.564Z,101827.47
2023-07-06T16:05:24.967Z,101821.06
2023-07-06T16:07:51.870Z,101829.84
2023-07-06T16:10:18.818Z,101824.16
2023-07-06T16:12:45.855Z,101830.56
2023-07-06T16:15:12.953Z,101823.16
2023-07-06T16:17:40.341Z,101835.00
2023-07-06T16:20:08.081Z,101831.09
2023-07-06T16:22:35.353Z,101837.53
2023-07-06T16:25:02.127Z,101830.44
2023-07-06T16:27:28.775Z,101825.34
2023-07-06T16:29:55.379Z,101829.91
2023-07-06T16:32:22.137Z,101834.59
2023-07-06T16:34:48.755Z,101826.53
2023-07-06T16:37:18.255Z,101825.50
2023-07-06T16:39:44.882Z,101829.22
2023-07-06T16:42:11.772Z,101825.56
2023-07-06T16:44:38.493Z,101829.41
2023-07-06T16:47:05.358Z,101825.75
2023-07-06T16:49:32.453Z,101826.25
2023-07-06T16:51:59.211Z,101824.25
2023-07-06T16:54:25.922Z,101827.75
2023-07-06T16:56:52.779Z,101826.41
2023-07-06T16:59:19.547Z,101823.16
2023-07-06T17:01:49.276Z,101820.69
2023-07-06T17:04:16.179Z,101821.28
2023-07-06T17:06:42.790Z,101824.72
2023-07-06T17:09:09.373Z,101825.88
2023-07-06T17:11:36.053Z,101820.34
2023-07-06T17:14:02.887Z,101830.44
2023-07-06T17:16:29.948Z,101824.50
2023-07-06T17:18:56.445Z,101823.34
2023-07-06T17:21:23.071Z,101827.97
2023-07-06T17:23:49.672Z,101830.47
2023-07-06T17:26:16.119Z,101833.59
2023-07-06T17:28:42.635Z,101829.00
2023-07-06T17:31:15.025Z,101839.53
2023-07-06T17:33:41.803Z,101835.50
2023-07-06T17:36:09.672Z,101838.28
2023-07-06T17:38:37.264Z,101834.81
2023-07-06T17:41:06.857Z,101838.13
2023-07-06T17:43:34.471Z,101842.84
2023-07-06T17:46:01.870Z,101841.09
2023-07-06T17:48:29.431Z,101847.44
2023-07-06T17:51:00.387Z,101840.31
2023-07-06T17:53:27.084Z,101835.91
2023-07-06T17:55:53.584Z,101839.25
2023-07-06T17:58:21.826Z,101840.59
2023-07-06T18:00:51.433Z,101848.41
2023-07-06T18:03:19.019Z,101849.09
2023-07-06T18:05:47.282Z,101849.59
2023-07-06T18:08:14.283Z,101845.19
2023-07-06T18:10:40.993Z,101849.19
2023-07-06T18:13:08.667Z,101852.06
2023-07-06T18:15:35.924Z,101848.69
2023-07-06T18:18:03.822Z,101849.56
2023-07-06T18:20:30.647Z,101848.09
2023-07-06T18:22:57.229Z,101861.63
2023-07-06T18:25:24.307Z,101850.25
2023-07-06T18:27:51.207Z,101849.88
2023-07-06T18:30:17.884Z,101861.38
2023-07-06T18:32:44.650Z,101853.19
2023-07-06T18:35:11.418Z,101855.66
2023-07-06T18:37:38.150Z,101852.19
2023-07-06T18:40:05.184Z,101850.72
2023-07-06T18:42:31.851Z,101851.59
2023-07-06T18:45:05.151Z,101850.03
2023-07-06T18:47:31.703Z,101852.47
2023-07-06T18:49:58.371Z,101860.78
2023-07-06T18:52:26.676Z,101860.03
2023-07-06T18:54:53.720Z,101856.94
2023-07-06T18:57:23.340Z,101860.16
2023-07-06T18:59:50.588Z,101860.97
2023-07-06T19:02:17.676Z,101865.31
2023-07-06T19:04:45.134Z,101868.53
2023-07-06T19:07:13.205Z,101861.47
2023-07-06T19:09:40.510Z,101864.25
2023-07-06T19:12:08.478Z,101870.56
2023-07-06T19:14:35.250Z,101872.56
2023-07-06T19:17:01.986Z,101871.41
2023-07-06T19:19:28.994Z,101872.22
2023-07-06T19:21:56.126Z,101876.19
2023-07-06T19:24:23.038Z,101872.22
2023-07-06T19:26:49.893Z,101875.78
2023-07-06T19:29:21.083Z,101878.16
2023-07-06T19:31:50.441Z,101882.09
2023-07-06T19:34:20.406Z,101886.41
2023-07-06T19:36:46.930Z,101882.47
2023-07-06T19:39:13.828Z,101895.81
2023-07-06T19:41:40.598Z,101890.69
2023-07-06T19:44:07.175Z,101890.28
2023-07-06T19:46:33.894Z,101903.16
2023-07-06T19:49:00.624Z,101905.50
2023-07-06T19:51:27.095Z,101910.16
2023-07-06T19:53:53.639Z,101902.72
2023-07-06T19:56:22.408Z,101908.50
2023-07-06T19:58:49.280Z,101917.47
2023-07-06T20:01:20.204Z,101913.13
2023-07-06T20:03:46.910Z,101926.78
2023-07-06T20:06:14.110Z,101927.47
2023-07-06T20:08:40.617Z,101934.09
2023-07-06T20:11:07.168Z,101928.56
2023-07-06T20:13:35.857Z,101923.78
2023-07-06T20:16:04.588Z,101933.91
2023-07-06T20:18:31.198Z,101935.84
2023-07-06T20:20:57.910Z,101936.56
2023-07-06T20:23:24.806Z,101940.03
2023-07-06T20:25:51.412Z,101941.56
2023-07-06T20:28:18.160Z,101945.78
2023-07-06T20:30:46.602Z,101938.25
2023-07-06T20:33:13.166Z,101936.59
2023-07-06T20:35:43.052Z,101936.53
2023-07-06T20:38:10.001Z,101942.72
2023-07-06T20:40:36.939Z,101947.31
2023-07-06T20:43:04.352Z,101950.31
2023-07-06T20:45:32.505Z,101955.28
2023-07-06T20:48:01.251Z,101959.09
2023-07-06T20:50:28.004Z,101957.84
2023-07-06T20:52:54.407Z,101959.28
2023-07-06T20:55:20.860Z,101971.72
2023-07-06T20:57:48.531Z,101972.41
2023-07-06T21:00:15.069Z,101970.72
2023-07-06T21:02:41.618Z,101976.81
2023-07-06T21:05:08.377Z,101966.44
2023-07-06T21:07:35.056Z,101973.78
2023-07-06T21:10:01.733Z,101976.88
2023-07-06T21:12:28.185Z,101975.63
2023-07-06T21:14:54.621Z,101980.59
2023-07-06T21:17:21.294Z,101984.94
2023-07-06T21:19:47.768Z,101978.59
2023-07-06T21:22:14.269Z,101982.44
2023-07-06T21:24:41.006Z,101989.78
2023-07-06T21:27:07.845Z,101989.66
2023-07-06T21:29:34.280Z,101989.97
2023-07-06T21:32:01.027Z,101996.97
2023-07-06T21:34:27.502Z,101989.84
2023-07-06T21:36:54.003Z,101986.28
2023-07-06T21:39:24.697Z,101986.56
2023-07-06T21:41:51.965Z,101993.91
2023-07-06T21:44:18.680Z,101987.59
2023-07-06T21:46:45.346Z,101983.94
2023-07-06T21:49:11.953Z,101989.25
2023-07-06T21:51:38.486Z,101987.19
2023-07-06T21:54:04.965Z,101988.28
2023-07-06T21:56:31.726Z,101990.94
2023-07-06T21:58:58.472Z,102001.38
2023-07-06T22:01:25.424Z,101998.47
2023-07-06T22:03:52.236Z,101999.91
2023-07-06T22:06:21.308Z,102006.00
2023-07-06T22:08:49.278Z,102007.59
2023-07-06T22:11:20.036Z,102001.25
2023-07-06T22:13:48.398Z,102008.50
2023-07-06T22:16:15.479Z,102003.41
2023-07-06T22:18:42.859Z,102003.81
2023-07-06T22:21:09.901Z,102001.09
2023-07-06T22:23:37.563Z,102007.19
2023-07-06T22:26:06.903Z,102009.34
2023-07-06T22:28:34.194Z,102011.72
2023-07-06T22:31:03.521Z,102007.03
2023-07-06T22:33:35.719Z,102009.75
2023-07-06T22:36:02.894Z,102003.00
2023-07-06T22:38:29.425Z,101998.09
2023-07-06T22:40:55.913Z,102005.41
2023-07-06T22:43:22.634Z,102006.09
2023-07-06T22:45:49.321Z,102003.66
2023-07-06T22:48:19.339Z,102010.19
2023-07-06T22:50:45.993Z,101999.91
2023-07-06T22:53:13.127Z,102007.31
2023-07-06T22:55:39.820Z,102008.28
2023-07-06T22:58:07.490Z,102003.09
2023-07-06T23:00:37.772Z,102003.88
2023-07-06T23:03:04.842Z,102006.94
2023-07-06T23:05:31.456Z,102003.00
2023-07-06T23:07:58.215Z,102011.19
2023-07-06T23:10:30.714Z,102009.56
2023-07-06T23:12:57.963Z,102009.84
2023-07-06T23:15:27.038Z,102001.16
2023-07-06T23:17:53.802Z,101993.31
2023-07-06T23:20:21.754Z,102004.56
2023-07-06T23:22:48.697Z,101992.38
2023-07-06T23:25:17.616Z,101995.78
2023-07-06T23:27:46.340Z,102002.38
2023-07-06T23:30:19.188Z,102010.53
2023-07-06T23:32:49.718Z,102003.06
2023-07-06T23:35:21.106Z,102004.56
2023-07-06T23:37:50.134Z,101998.47
2023-07-06T23:40:22.428Z,102006.09
2023-07-06T23:42:49.482Z,102008.28
2023-07-06T23:45:16.432Z,102014.78
2023-07-06T23:47:43.005Z,102016.63
2023-07-06T23:50:10.797Z,102012.66
2023-07-06T23:52:37.537Z,102008.16
2023-07-06T23:55:04.333Z,102012.25
2023-07-06T23:57:30.905Z,102011.03
2023-07-06T23:59:57.540Z,102001.63
